createdAt,value
2017-10-20T00:00:13.445Z,44.10
2017-10-20T00:02:39.453Z,47.27
2017-10-20T00:05:05.435Z,44.17
2017-10-20T00:07:31.405Z,42.53
2017-10-20T00:09:57.374Z,50.17
2017-10-20T00:12:23.313Z,44.80
2017-10-20T00:14:49.297Z,43.87
2017-10-20T00:17:15.252Z,45.03
2017-10-20T00:19:41.965Z,40.40
2017-10-20T00:22:07.933Z,41.30
2017-10-20T00:24:33.925Z,40.87
2017-10-20T00:26:59.866Z,38.87
2017-10-20T00:29:25.842Z,43.40
2017-10-20T00:31:51.825Z,43.10
2017-10-20T00:34:18.514Z,45.53
2017-10-20T00:36:44.565Z,47.30
2017-10-20T00:39:10.513Z,40.07
2017-10-20T00:41:36.481Z,37.17
2017-10-20T00:44:02.421Z,43.63
2017-10-20T00:46:28.391Z,44.97
2017-10-20T00:48:54.369Z,43.10
2017-10-20T00:51:20.329Z,49.40
2017-10-20T00:53:46.285Z,41.97
2017-10-20T00:56:12.283Z,45.27
2017-10-20T00:58:38.230Z,41.23
2017-10-20T01:01:04.909Z,42.77
2017-10-20T01:03:30.884Z,46.67
2017-10-20T01:05:56.845Z,45.33
2017-10-20T01:08:22.844Z,53.20
2017-10-20T01:10:48.797Z,50.50
2017-10-20T01:13:14.761Z,46.47
2017-10-20T01:15:40.744Z,43.97
2017-10-20T01:18:06.708Z,43.90
2017-10-20T01:20:33.401Z,47.37
2017-10-20T01:22:59.366Z,44.17
2017-10-20T01:25:25.329Z,47.10
2017-10-20T01:27:51.257Z,56.20
2017-10-20T01:30:17.992Z,45.93
2017-10-20T01:32:43.944Z,44.10
2017-10-20T01:35:09.881Z,51.60
2017-10-20T01:37:35.852Z,49.03
2017-10-20T01:40:01.785Z,51.83
2017-10-20T01:42:27.717Z,48.33
2017-10-20T01:44:54.436Z,43.70
2017-10-20T01:47:21.125Z,54.27
2017-10-20T01:49:47.073Z,50.20
2017-10-20T01:52:13.800Z,51.10
2017-10-20T01:54:39.749Z,51.20
2017-10-20T01:57:05.673Z,42.67
2017-10-20T01:59:31.633Z,52.83
2017-10-20T02:01:57.557Z,50.63
2017-10-20T02:04:23.529Z,49.67
2017-10-20T02:06:50.201Z,46.70
2017-10-20T02:09:16.141Z,48.47
2017-10-20T02:11:42.849Z,50.53
2017-10-20T02:14:08.797Z,43.23
2017-10-20T02:16:34.761Z,47.63
2017-10-20T02:19:00.745Z,43.97
2017-10-20T02:21:26.709Z,44.80
2017-10-20T02:23:53.397Z,47.27
2017-10-20T02:26:19.368Z,43.63
2017-10-20T02:28:45.324Z,41.63
2017-10-20T02:31:11.309Z,52.80
2017-10-20T02:33:37.274Z,49.37
2017-10-20T02:36:03.945Z,45.60
2017-10-20T02:38:29.872Z,50.73
2017-10-20T02:40:55.833Z,40.60
2017-10-20T02:43:21.796Z,46.97
2017-10-20T02:45:47.781Z,46.97
2017-10-20T02:48:13.714Z,43.67
2017-10-20T02:50:39.696Z,46.17
2017-10-20T02:53:05.625Z,41.87
2017-10-20T02:55:31.597Z,55.50
2017-10-20T02:57:57.529Z,47.50
2017-10-20T03:00:23.464Z,49.13
2017-10-20T03:02:50.184Z,40.93
2017-10-20T03:05:16.861Z,38.80
2017-10-20T03:07:42.833Z,47.27
2017-10-20T03:10:09.561Z,41.50
2017-10-20T03:12:36.245Z,50.70
2017-10-20T03:15:02.191Z,44.30
2017-10-20T03:17:28.908Z,53.77
2017-10-20T03:19:55.576Z,54.37
2017-10-20T03:22:21.545Z,45.23
2017-10-20T03:24:48.313Z,47.23
2017-10-20T03:27:14.273Z,44.77
2017-10-20T03:29:40.987Z,45.53
2017-10-20T03:32:06.956Z,39.27
2017-10-20T03:34:32.905Z,45.67
2017-10-20T03:36:58.876Z,46.20
2017-10-20T03:39:24.804Z,40.90
2017-10-20T03:41:50.737Z,44.73
2017-10-20T03:44:17.456Z,42.73
2017-10-20T03:46:43.398Z,47.20
2017-10-20T03:49:09.345Z,46.47
2017-10-20T03:51:35.360Z,50.80
2017-10-20T03:54:01.302Z,43.47
2017-10-20T03:56:28.031Z,49.53
2017-10-20T03:58:54.752Z,43.53
2017-10-20T04:01:21.525Z,39.43
2017-10-20T04:03:47.514Z,43.67
2017-10-20T04:06:13.522Z,49.13
2017-10-20T04:08:39.477Z,40.53
2017-10-20T04:11:06.906Z,47.90
2017-10-20T04:13:32.885Z,52.30
2017-10-20T04:15:58.833Z,52.70
2017-10-20T04:18:24.806Z,45.73
2017-10-20T04:20:50.745Z,50.57
2017-10-20T04:23:16.718Z,44.90
2017-10-20T04:25:42.703Z,47.23
2017-10-20T04:28:08.657Z,54.70
2017-10-20T04:30:34.605Z,44.20
2017-10-20T04:33:01.317Z,44.17
2017-10-20T04:35:27.261Z,48.90
2017-10-20T04:37:53.193Z,48.87
2017-10-20T04:40:19.161Z,53.57
2017-10-20T04:42:45.869Z,50.87
2017-10-20T04:45:11.828Z,49.07
2017-10-20T04:47:37.808Z,50.83
2017-10-20T04:50:03.785Z,55.03
2017-10-20T04:52:29.717Z,51.50
2017-10-20T04:54:56.397Z,52.53
2017-10-20T04:57:22.389Z,55.00
2017-10-20T04:59:48.320Z,56.83
2017-10-20T05:02:14.258Z,44.40
2017-10-20T05:04:40.976Z,49.10
2017-10-20T05:07:06.930Z,42.67
2017-10-20T05:09:32.929Z,51.00
2017-10-20T05:11:58.909Z,46.30
2017-10-20T05:14:25.593Z,43.47
2017-10-20T05:16:51.536Z,48.10
2017-10-20T05:19:18.265Z,42.60
2017-10-20T05:21:44.959Z,45.93
2017-10-20T05:24:11.650Z,43.60
2017-10-20T05:26:37.633Z,50.10
2017-10-20T05:29:04.309Z,52.30
2017-10-20T05:31:30.297Z,41.83
2017-10-20T05:33:56.271Z,44.63
2017-10-20T05:36:23.053Z,44.50
2017-10-20T05:38:49.025Z,43.63
2017-10-20T05:41:14.988Z,43.53
2017-10-20T05:43:40.985Z,50.17
2017-10-20T05:46:07.701Z,51.03
2017-10-20T05:48:33.685Z,50.90
2017-10-20T05:50:59.628Z,50.10
2017-10-20T05:53:25.585Z,50.13
2017-10-20T05:55:51.540Z,48.97
2017-10-20T05:58:17.477Z,50.07
2017-10-20T06:00:44.207Z,47.93
2017-10-20T06:03:10.897Z,55.37
2017-10-20T06:05:36.837Z,53.83
2017-10-20T06:08:03.552Z,50.43
2017-10-20T06:10:30.229Z,53.30
2017-10-20T06:12:56.205Z,47.90
2017-10-20T06:15:22.154Z,47.70
2017-10-20T06:17:48.128Z,59.30
2017-10-20T06:20:14.123Z,57.80
2017-10-20T06:22:40.424Z,60.10
2017-10-20T06:25:07.101Z,53.90
2017-10-20T06:27:33.054Z,48.40
2017-10-20T06:29:59.792Z,54.43
2017-10-20T06:32:25.740Z,57.17
2017-10-20T06:34:51.694Z,59.83
2017-10-20T06:37:18.452Z,61.03
2017-10-20T06:39:44.490Z,48.73
2017-10-20T06:42:10.429Z,63.77
2017-10-20T06:44:36.400Z,57.10
2017-10-20T06:47:02.329Z,52.47
2017-10-20T06:49:28.269Z,62.80
2017-10-20T06:51:54.971Z,60.50
2017-10-20T06:54:20.937Z,52.07
2017-10-20T06:56:46.874Z,58.83
2017-10-20T06:59:12.837Z,59.73
2017-10-20T07:01:38.782Z,57.40
2017-10-20T07:04:04.773Z,55.87
2017-10-20T07:06:30.717Z,56.97
2017-10-20T07:08:57.436Z,69.83
2017-10-20T07:11:24.160Z,66.60
2017-10-20T07:13:50.865Z,59.50
2017-10-20T07:16:16.912Z,50.40
2017-10-20T07:18:43.729Z,57.03
2017-10-20T07:21:10.405Z,66.50
2017-10-20T07:23:36.361Z,59.03
2017-10-20T07:26:03.073Z,55.40
2017-10-20T07:28:29.029Z,61.77
2017-10-20T07:30:55.013Z,54.73
2017-10-20T07:33:21.689Z,55.60
2017-10-20T07:35:47.617Z,52.40
2017-10-20T07:38:13.578Z,56.33
2017-10-20T07:40:39.513Z,52.57
2017-10-20T07:43:05.519Z,51.07
2017-10-20T07:45:31.488Z,53.70
2017-10-20T07:47:57.465Z,47.03
2017-10-20T07:50:24.155Z,51.20
2017-10-20T07:52:50.116Z,49.07
2017-10-20T07:55:16.064Z,45.77
2017-10-20T07:57:42.054Z,52.70
2017-10-20T08:00:08.005Z,51.57
2017-10-20T08:02:33.937Z,45.60
2017-10-20T08:04:59.973Z,48.10
2017-10-20T08:07:25.940Z,47.43
2017-10-20T08:09:52.622Z,40.07
2017-10-20T08:12:18.669Z,37.10
2017-10-20T08:14:44.669Z,39.70
2017-10-20T08:17:10.605Z,38.93
2017-10-20T08:19:36.544Z,42.17
2017-10-20T08:22:02.512Z,34.87
2017-10-20T08:24:29.184Z,46.30
2017-10-20T08:26:55.157Z,37.47
2017-10-20T08:29:21.092Z,30.97
2017-10-20T08:31:47.071Z,38.53
2017-10-20T08:34:13.749Z,33.33
2017-10-20T08:36:39.753Z,28.93
2017-10-20T08:39:05.685Z,33.57
2017-10-20T08:41:31.621Z,34.33
2017-10-20T08:43:57.627Z,31.30
2017-10-20T08:46:24.293Z,33.73
2017-10-20T08:48:50.221Z,29.13
2017-10-20T08:51:16.181Z,29.90
2017-10-20T08:53:42.125Z,27.93
2017-10-20T08:56:08.104Z,24.20
2017-10-20T08:58:34.052Z,26.47
2017-10-20T09:00:59.989Z,26.90
2017-10-20T09:03:26.688Z,26.97
2017-10-20T09:05:52.668Z,27.70
2017-10-20T09:08:18.603Z,24.17
2017-10-20T09:10:44.592Z,23.07
2017-10-20T09:13:10.557Z,27.20
2017-10-20T09:15:36.537Z,23.20
2017-10-20T09:18:02.473Z,23.97
2017-10-20T09:20:29.163Z,23.80
2017-10-20T09:22:55.852Z,27.67
2017-10-20T09:25:22.521Z,22.97
2017-10-20T09:27:48.505Z,22.97
2017-10-20T09:30:14.481Z,22.13
2017-10-20T09:32:40.429Z,22.83
2017-10-20T09:35:06.382Z,21.77
2017-10-20T09:37:32.357Z,25.40
2017-10-20T09:39:58.288Z,20.97
2017-10-20T09:42:24.230Z,25.73
2017-10-20T09:44:50.966Z,21.73
2017-10-20T09:47:17.637Z,21.30
2017-10-20T09:49:43.641Z,22.20
2017-10-20T09:52:09.600Z,22.80
2017-10-20T09:54:36.277Z,21.33
2017-10-20T09:57:02.256Z,19.17
2017-10-20T09:59:28.203Z,22.50
2017-10-20T10:01:54.181Z,24.90
2017-10-20T10:04:20.116Z,26.50
2017-10-20T10:06:46.073Z,19.40
2017-10-20T10:09:12.025Z,25.77
2017-10-20T10:11:38.009Z,25.20
2017-10-20T10:14:03.941Z,24.10
2017-10-20T10:16:29.901Z,26.40
2017-10-20T10:18:56.620Z,23.77
2017-10-20T10:21:23.314Z,24.07
2017-10-20T10:23:49.256Z,23.90
2017-10-20T10:26:15.237Z,22.17
2017-10-20T10:28:41.180Z,23.10
2017-10-20T10:31:07.173Z,28.70
2017-10-20T10:33:33.117Z,27.23
2017-10-20T10:35:59.837Z,24.33
2017-10-20T10:38:25.812Z,25.80
2017-10-20T10:40:51.761Z,27.70
2017-10-20T10:43:17.728Z,26.77
2017-10-20T10:45:43.672Z,26.27
2017-10-20T10:48:09.658Z,22.67
2017-10-20T10:50:35.608Z,22.60
2017-10-20T10:53:02.287Z,25.50
2017-10-20T10:55:28.261Z,23.30
2017-10-20T10:57:54.205Z,25.80
2017-10-20T11:00:20.173Z,26.90
2017-10-20T11:02:46.118Z,29.43
2017-10-20T11:05:12.075Z,28.13
2017-10-20T11:07:51.113Z,25.00
2017-10-20T11:10:29.593Z,26.23
2017-10-20T11:12:59.505Z,24.53
2017-10-20T11:15:25.458Z,25.23
2017-10-20T11:17:51.397Z,25.73
2017-10-20T11:20:18.109Z,26.30
2017-10-20T11:22:44.061Z,26.57
2017-10-20T11:25:10.020Z,27.67
2017-10-20T11:27:36.697Z,28.17
2017-10-20T11:30:02.639Z,26.97
2017-10-20T11:32:29.353Z,26.60
2017-10-20T11:34:56.069Z,28.47
2017-10-20T11:37:22.012Z,27.53
2017-10-20T11:39:48.733Z,37.57
2017-10-20T11:42:15.401Z,32.10
2017-10-20T11:44:41.341Z,27.73
2017-10-20T11:47:07.313Z,32.50
2017-10-20T11:49:33.276Z,32.20
2017-10-20T11:51:59.965Z,29.23
2017-10-20T11:54:25.965Z,33.50
2017-10-20T11:56:51.930Z,29.33
2017-10-20T11:59:17.867Z,27.30
2017-10-20T12:01:43.849Z,31.80
2017-10-20T12:04:09.788Z,31.73
2017-10-20T12:06:35.729Z,35.50
2017-10-20T12:09:01.778Z,32.60
2017-10-20T12:11:27.757Z,39.13
2017-10-20T12:13:53.692Z,32.80
2017-10-20T12:16:20.409Z,32.30
2017-10-20T12:18:47.854Z,31.23
2017-10-20T12:21:14.529Z,27.90
2017-10-20T12:23:40.504Z,29.57
2017-10-20T12:26:07.172Z,30.27
2017-10-20T12:28:33.157Z,28.33
2017-10-20T12:30:59.105Z,31.60
2017-10-20T12:33:25.045Z,28.00
2017-10-20T12:35:51.010Z,32.07
2017-10-20T12:38:16.953Z,29.50
2017-10-20T12:40:42.932Z,26.07
2017-10-20T12:43:08.884Z,34.27
2017-10-20T12:45:35.607Z,30.57
2017-10-20T12:48:02.304Z,31.23
2017-10-20T12:50:28.299Z,32.60
2017-10-20T12:52:54.273Z,28.83
2017-10-20T12:55:20.257Z,34.13
2017-10-20T12:57:46.984Z,32.50
2017-10-20T13:00:13.709Z,35.83
2017-10-20T13:02:40.401Z,32.53
2017-10-20T13:05:07.081Z,31.70
2017-10-20T13:07:33.044Z,31.40
2017-10-20T13:09:59.004Z,30.00
2017-10-20T13:12:25.002Z,31.83
2017-10-20T13:14:51.056Z,32.63
2017-10-20T13:17:16.992Z,31.40
2017-10-20T13:19:43.709Z,35.50
2017-10-20T13:22:09.677Z,33.83
2017-10-20T13:24:35.613Z,31.93
2017-10-20T13:27:02.350Z,32.73
2017-10-20T13:29:28.289Z,32.20
2017-10-20T13:31:54.232Z,29.97
2017-10-20T13:34:20.202Z,36.53
2017-10-20T13:36:46.197Z,34.23
2017-10-20T13:39:12.876Z,37.97
2017-10-20T13:41:38.870Z,32.53
2017-10-20T13:44:04.820Z,37.50
2017-10-20T13:46:30.810Z,32.30
2017-10-20T13:48:56.857Z,33.27
2017-10-20T13:51:23.543Z,36.07
2017-10-20T13:53:49.479Z,37.07
2017-10-20T13:56:16.200Z,32.70
2017-10-20T13:58:42.889Z,35.53
2017-10-20T14:01:08.837Z,29.70
2017-10-20T14:03:35.565Z,32.70
2017-10-20T14:06:02.259Z,35.50
2017-10-20T14:08:28.229Z,33.47
2017-10-20T14:10:54.221Z,34.07
2017-10-20T14:13:20.172Z,36.30
2017-10-20T14:15:46.144Z,36.27
2017-10-20T14:18:12.174Z,41.03
2017-10-20T14:20:38.149Z,36.33
2017-10-20T14:23:04.881Z,38.77
2017-10-20T14:25:31.600Z,33.17
2017-10-20T14:27:58.344Z,39.37
2017-10-20T14:30:24.285Z,34.83
2017-10-20T14:32:50.267Z,32.77
2017-10-20T14:35:16.263Z,34.80
2017-10-20T14:37:42.221Z,37.00
2017-10-20T14:40:08.204Z,30.57
2017-10-20T14:42:34.177Z,35.57
2017-10-20T14:45:00.918Z,36.10
2017-10-20T14:47:26.929Z,30.60
2017-10-20T14:49:52.897Z,33.77
2017-10-20T14:52:18.873Z,34.27
2017-10-20T14:54:44.810Z,36.50
2017-10-20T14:57:10.750Z,37.03
2017-10-20T14:59:37.460Z,32.27
2017-10-20T15:02:04.154Z,36.30
2017-10-20T15:04:30.153Z,35.87
2017-10-20T15:06:56.100Z,34.03
2017-10-20T15:09:22.797Z,34.93
2017-10-20T15:11:48.781Z,36.70
2017-10-20T15:14:14.722Z,33.80
2017-10-20T15:16:40.669Z,37.63
2017-10-20T15:19:06.685Z,39.73
2017-10-20T15:21:32.635Z,36.37
2017-10-20T15:23:58.593Z,37.30
2017-10-20T15:26:25.340Z,37.03
2017-10-20T15:28:51.317Z,33.87
2017-10-20T15:31:18.041Z,33.13
2017-10-20T15:33:43.992Z,38.53
2017-10-20T15:36:10.035Z,36.20
2017-10-20T15:38:36.029Z,37.77
2017-10-20T15:41:02.021Z,38.73
2017-10-20T15:43:27.969Z,40.77
2017-10-20T15:45:53.996Z,35.70
2017-10-20T15:48:19.949Z,40.87
2017-10-20T15:50:46.172Z,36.07
2017-10-20T15:53:12.166Z,37.50
2017-10-20T15:55:38.210Z,37.83
2017-10-20T15:58:04.172Z,36.10
2017-10-20T16:00:31.021Z,37.80
2017-10-20T16:02:57.201Z,38.43
2017-10-20T16:05:24.033Z,36.47
2017-10-20T16:07:50.709Z,37.60
2017-10-20T16:10:16.675Z,48.27
2017-10-20T16:12:43.410Z,63.40
2017-10-20T16:15:09.384Z,46.10
2017-10-20T16:17:35.345Z,41.70
2017-10-20T16:20:01.325Z,45.23
2017-10-20T16:22:28.017Z,46.73
2017-10-20T16:24:53.965Z,44.60
2017-10-20T16:27:19.939Z,44.70
2017-10-20T16:29:45.888Z,43.07
2017-10-20T16:32:11.861Z,45.33
2017-10-20T16:34:38.900Z,44.27
2017-10-20T16:37:04.902Z,42.90
2017-10-20T16:39:30.850Z,40.90
2017-10-20T16:41:57.063Z,47.33
2017-10-20T16:44:23.764Z,44.90
2017-10-20T16:46:49.748Z,38.73
2017-10-20T16:49:15.729Z,41.77
2017-10-20T16:51:42.416Z,39.97
2017-10-20T16:54:08.433Z,41.20
2017-10-20T16:56:34.374Z,42.13
2017-10-20T16:59:01.072Z,48.27
2017-10-20T17:01:27.040Z,39.20
2017-10-20T17:03:53.013Z,53.83
2017-10-20T17:06:19.689Z,43.67
2017-10-20T17:08:45.673Z,52.13
2017-10-20T17:11:11.669Z,44.23
2017-10-20T17:13:37.689Z,47.37
2017-10-20T17:16:03.629Z,43.90
2017-10-20T17:18:29.597Z,44.20
2017-10-20T17:20:55.541Z,52.30
2017-10-20T17:23:21.504Z,42.03
2017-10-20T17:25:47.440Z,45.93
2017-10-20T17:28:13.413Z,47.47
2017-10-20T17:30:40.105Z,48.37
2017-10-20T17:33:06.074Z,47.47
2017-10-20T17:35:33.093Z,48.43
2017-10-20T17:37:59.061Z,47.53
2017-10-20T17:40:25.001Z,42.40
2017-10-20T17:42:50.984Z,45.50
2017-10-20T17:45:16.917Z,49.20
2017-10-20T17:47:42.857Z,47.47
2017-10-20T17:50:08.846Z,46.40
2017-10-20T17:52:34.801Z,41.53
2017-10-20T17:55:00.776Z,52.10
2017-10-20T17:57:26.710Z,55.17
2017-10-20T17:59:52.652Z,51.67
2017-10-20T18:02:19.361Z,49.00
2017-10-20T18:04:46.049Z,53.27
2017-10-20T18:07:12.033Z,52.83
2017-10-20T18:09:37.969Z,52.93
2017-10-20T18:12:03.924Z,52.40
2017-10-20T18:14:30.649Z,56.10
2017-10-20T18:16:57.329Z,50.97
2017-10-20T18:19:23.357Z,51.13
2017-10-20T18:21:49.289Z,48.43
2017-10-20T18:24:15.289Z,44.20
2017-10-20T18:26:41.248Z,46.00
2017-10-20T18:29:07.945Z,49.57
2017-10-20T18:31:33.922Z,50.57
2017-10-20T18:33:59.860Z,43.80
2017-10-20T18:36:25.850Z,48.00
2017-10-20T18:38:51.816Z,44.63
2017-10-20T18:41:18.502Z,45.17
2017-10-20T18:43:44.491Z,48.77
2017-10-20T18:46:10.504Z,44.50
2017-10-20T18:48:36.483Z,46.07
2017-10-20T18:51:02.488Z,46.50
2017-10-20T18:53:28.428Z,50.60
2017-10-20T18:55:54.400Z,48.60
2017-10-20T18:58:20.437Z,58.47
2017-10-20T19:00:46.418Z,62.67
2017-10-20T19:03:12.384Z,55.60
2017-10-20T19:05:38.382Z,49.37
2017-10-20T19:08:04.325Z,53.10
2017-10-20T19:10:31.040Z,56.87
2017-10-20T19:12:56.972Z,50.80
2017-10-20T19:15:23.717Z,49.90
2017-10-20T19:17:49.706Z,53.83
2017-10-20T19:20:16.393Z,46.93
2017-10-20T19:22:42.340Z,44.57
2017-10-20T19:25:09.060Z,55.60
2017-10-20T19:27:42.944Z,50.90
2017-10-20T19:30:09.677Z,48.37
2017-10-20T19:32:35.624Z,53.03
2017-10-20T19:35:01.588Z,48.70
2017-10-20T19:37:28.264Z,53.00
2017-10-20T19:39:54.228Z,47.50
2017-10-20T19:42:20.901Z,52.20
2017-10-20T19:44:46.876Z,45.60
2017-10-20T19:47:12.826Z,52.60
2017-10-20T19:49:38.769Z,48.90
2017-10-20T19:52:05.497Z,51.73
2017-10-20T19:54:32.185Z,49.87
2017-10-20T19:56:58.175Z,55.63
2017-10-20T19:59:24.137Z,57.33
2017-10-20T20:01:50.811Z,59.30
2017-10-20T20:04:16.781Z,45.97
2017-10-20T20:06:43.480Z,45.40
2017-10-20T20:09:09.497Z,51.07
2017-10-20T20:11:36.184Z,49.53
2017-10-20T20:14:02.160Z,51.50
2017-10-20T20:16:28.096Z,52.27
2017-10-20T20:18:54.037Z,50.70
2017-10-20T20:21:20.010Z,54.47
2017-10-20T20:23:45.970Z,62.47
2017-10-20T20:26:12.696Z,56.73
2017-10-20T20:28:39.402Z,57.30
2017-10-20T20:31:08.980Z,60.27
2017-10-20T20:33:35.733Z,57.30
2017-10-20T20:36:02.453Z,56.80
2017-10-20T20:38:28.420Z,59.30
2017-10-20T20:40:54.393Z,54.63
2017-10-20T20:43:20.369Z,58.73
2017-10-20T20:45:46.340Z,57.63
2017-10-20T20:48:12.318Z,60.17
2017-10-20T20:50:38.765Z,59.90
2017-10-20T20:53:06.251Z,53.30
2017-10-20T20:55:33.194Z,52.40
2017-10-20T20:58:00.143Z,50.57
2017-10-20T21:00:26.371Z,59.87
2017-10-20T21:02:52.368Z,53.50
2017-10-20T21:05:18.377Z,63.87
2017-10-20T21:07:44.340Z,63.13
2017-10-20T21:10:10.279Z,60.10
2017-10-20T21:12:36.997Z,60.70
2017-10-20T21:15:02.965Z,66.53
2017-10-20T21:17:28.967Z,57.27
2017-10-20T21:19:54.900Z,61.50
2017-10-20T21:22:21.643Z,62.43
2017-10-20T21:24:47.612Z,58.10
2017-10-20T21:27:14.294Z,55.53
2017-10-20T21:29:40.268Z,62.87
2017-10-20T21:32:06.212Z,61.60
2017-10-20T21:34:32.190Z,68.70
2017-10-20T21:36:58.184Z,58.73
2017-10-20T21:39:24.125Z,61.77
2017-10-20T21:41:50.801Z,57.43
2017-10-20T21:44:16.801Z,57.77
2017-10-20T21:46:42.757Z,57.73
2017-10-20T21:49:08.839Z,57.80
2017-10-20T21:51:34.829Z,61.73
2017-10-20T21:54:00.810Z,57.67
2017-10-20T21:56:26.749Z,55.73
2017-10-20T21:58:52.726Z,53.17
2017-10-20T22:01:18.676Z,57.60
2017-10-20T22:03:44.682Z,61.83
2017-10-20T22:06:17.662Z,56.30
2017-10-20T22:08:43.646Z,53.33
2017-10-20T22:11:09.584Z,52.27
2017-10-20T22:13:35.543Z,64.47
2017-10-20T22:16:01.526Z,51.40
2017-10-20T22:18:27.477Z,61.77
2017-10-20T22:20:53.432Z,57.23
2017-10-20T22:23:19.405Z,53.93
2017-10-20T22:25:45.356Z,59.63
2017-10-20T22:28:12.454Z,51.73
2017-10-20T22:30:38.429Z,50.07
2017-10-20T22:33:04.375Z,55.90
2017-10-20T22:35:30.308Z,50.87
2017-10-20T22:37:56.281Z,52.40
2017-10-20T22:40:22.212Z,49.13
2017-10-20T22:42:48.944Z,52.77
2017-10-20T22:45:15.629Z,55.47
2017-10-20T22:47:41.570Z,54.00
2017-10-20T22:50:08.288Z,51.03
2017-10-20T22:52:34.986Z,48.57
2017-10-20T22:55:00.952Z,48.40
2017-10-20T22:57:26.920Z,51.47
2017-10-20T22:59:52.905Z,49.70
2017-10-20T23:02:18.921Z,47.27
2017-10-20T23:04:44.891Z,38.47
2017-10-20T23:07:10.836Z,44.53
2017-10-20T23:09:36.813Z,35.60
2017-10-20T23:12:02.756Z,31.93
2017-10-20T23:14:28.727Z,33.50
2017-10-20T23:16:54.713Z,32.07
2017-10-20T23:19:20.685Z,29.77
2017-10-20T23:21:47.417Z,24.40
2017-10-20T23:24:13.366Z,26.50
2017-10-20T23:26:39.335Z,25.80
2017-10-20T23:29:06.808Z,23.90
2017-10-20T23:31:32.804Z,23.13
2017-10-20T23:33:58.760Z,18.70
2017-10-20T23:36:24.738Z,20.80
2017-10-20T23:38:50.672Z,18.03
2017-10-20T23:41:16.709Z,18.30
2017-10-20T23:43:43.421Z,21.10
2017-10-20T23:46:09.352Z,18.53
2017-10-20T23:48:35.339Z,18.97
2017-10-20T23:51:02.066Z,17.07
2017-10-20T23:53:28.004Z,16.73
2017-10-20T23:55:53.969Z,19.40
2017-10-20T23:58:19.914Z,24.93
